createdAt,value
2023-03-28T00:00:52.369Z,1.75
2023-03-28T00:03:22.490Z,1.98
2023-03-28T00:05:51.303Z,1.77
2023-03-28T00:08:18.706Z,1.83
2023-03-28T00:10:45.993Z,1.45
2023-03-28T00:13:19.795Z,1.85
2023-03-28T00:15:48.278Z,1.73
2023-03-28T00:18:15.612Z,1.15
2023-03-28T00:20:43.678Z,2.15
2023-03-28T00:23:12.496Z,1.35
2023-03-28T00:25:41.738Z,1.92
2023-03-28T00:28:09.264Z,1.77
2023-03-28T00:30:36.594Z,2.45
2023-03-28T00:33:05.503Z,1.67
2023-03-28T00:35:33.172Z,2.72
2023-03-28T00:38:00.393Z,2.08
2023-03-28T00:40:27.682Z,1.95
2023-03-28T00:42:54.787Z,1.42
2023-03-28T00:45:22.739Z,1.55
2023-03-28T00:47:54.755Z,1.80
2023-03-28T00:50:27.463Z,2.30
2023-03-28T00:53:13.816Z,1.83
2023-03-28T00:55:57.523Z,1.55
2023-03-28T01:00:56.925Z,1.45
2023-03-28T01:03:28.870Z,1.65
2023-03-28T01:05:57.576Z,1.75
2023-03-28T01:08:28.336Z,1.88
2023-03-28T01:10:56.163Z,1.77
2023-03-28T01:13:31.763Z,1.90
2023-03-28T01:15:59.663Z,1.30
2023-03-28T01:18:26.986Z,1.38
2023-03-28T01:21:06.612Z,1.75
2023-03-28T01:24:11.390Z,2.30
2023-03-28T01:26:56.313Z,2.10
2023-03-28T01:32:21.067Z,2.05
2023-03-28T01:35:26.299Z,1.50
2023-03-28T01:38:14.914Z,2.22
2023-03-28T01:41:04.636Z,1.60
2023-03-28T01:43:50.636Z,1.40
2023-03-28T01:46:31.466Z,1.63
2023-03-28T01:49:41.910Z,1.45
2023-03-28T01:52:19.643Z,1.58
2023-03-28T01:55:05.362Z,1.65
2023-03-28T01:58:16.866Z,1.55
2023-03-28T02:00:47.906Z,1.42
2023-03-28T02:03:36.562Z,1.65
2023-03-28T02:06:08.572Z,1.85
2023-03-28T02:08:39.780Z,1.63
2023-03-28T02:11:09.997Z,1.55
2023-03-28T02:13:43.802Z,2.03
2023-03-28T02:16:13.302Z,1.70
2023-03-28T02:18:45.816Z,1.77
2023-03-28T02:21:28.110Z,1.48
2023-03-28T02:23:56.236Z,2.13
2023-03-28T02:26:25.879Z,1.30
2023-03-28T02:28:56.962Z,2.10
2023-03-28T02:31:24.922Z,2.45
2023-03-28T02:33:53.358Z,2.03
2023-03-28T02:36:38.934Z,2.20
2023-03-28T02:39:05.886Z,1.77
2023-03-28T02:42:20.650Z,1.20
2023-03-28T02:47:44.918Z,2.00
2023-03-28T02:50:36.730Z,1.67
2023-03-28T02:53:09.892Z,2.17
2023-03-28T02:55:58.417Z,2.72
2023-03-28T02:58:42.360Z,1.58
2023-03-28T03:01:10.514Z,2.25
2023-03-28T03:03:38.194Z,2.63
2023-03-28T03:06:06.548Z,2.35
2023-03-28T03:08:33.825Z,2.45
2023-03-28T03:11:01.137Z,2.08
2023-03-28T03:13:28.169Z,2.55
2023-03-28T03:15:56.257Z,2.38
2023-03-28T03:18:23.915Z,3.08
2023-03-28T03:20:51.053Z,3.22
2023-03-28T03:23:18.486Z,3.03
2023-03-28T03:25:46.629Z,2.67
2023-03-28T03:28:13.715Z,2.78
2023-03-28T03:30:40.846Z,2.78
2023-03-28T03:33:10.336Z,2.95
2023-03-28T03:35:38.744Z,2.88
2023-03-28T03:38:06.070Z,3.42
2023-03-28T03:40:33.197Z,2.95
2023-03-28T03:43:00.265Z,3.25
2023-03-28T03:45:27.339Z,3.90
2023-03-28T03:47:54.517Z,2.78
2023-03-28T03:50:21.707Z,3.22
2023-03-28T03:52:48.783Z,2.83
2023-03-28T03:55:15.915Z,3.25
2023-03-28T03:57:42.968Z,2.95
2023-03-28T04:00:13.259Z,3.20
2023-03-28T04:02:40.950Z,3.38
2023-03-28T04:05:08.919Z,3.03
2023-03-28T04:07:36.492Z,3.60
2023-03-28T04:10:04.880Z,3.10
2023-03-28T04:12:31.942Z,3.47
2023-03-28T04:14:59.050Z,3.08
2023-03-28T04:17:30.110Z,3.30
2023-03-28T04:19:57.549Z,3.58
2023-03-28T04:22:29.996Z,3.38
2023-03-28T04:24:57.481Z,4.18
2023-03-28T04:27:31.304Z,2.67
2023-03-28T04:30:00.774Z,3.88
2023-03-28T04:32:27.979Z,7.97
2023-03-28T04:34:55.122Z,9.60
2023-03-28T04:37:22.545Z,4.22
2023-03-28T04:39:54.035Z,4.63
2023-03-28T04:42:22.125Z,7.55
2023-03-28T04:44:49.229Z,3.88
2023-03-28T04:47:26.363Z,3.40
2023-03-28T04:49:54.184Z,7.55
2023-03-28T05:00:27.970Z,4.90
2023-03-28T05:02:56.088Z,5.45
2023-03-28T05:05:23.508Z,6.72
2023-03-28T05:07:51.652Z,4.95
2023-03-28T05:10:18.812Z,5.30
2023-03-28T05:12:45.940Z,4.50
2023-03-28T05:15:21.232Z,6.13
2023-03-28T05:17:51.097Z,6.75
2023-03-28T05:20:20.038Z,5.40
2023-03-28T05:22:48.060Z,4.22
2023-03-28T05:25:15.324Z,5.00
2023-03-28T05:27:42.692Z,5.78
2023-03-28T05:30:10.661Z,5.00
2023-03-28T05:32:38.922Z,3.70
2023-03-28T05:35:09.005Z,4.90
2023-03-28T05:37:37.544Z,4.40
2023-03-28T05:40:08.962Z,4.60
2023-03-28T05:42:36.131Z,4.47
2023-03-28T05:45:08.247Z,4.93
2023-03-28T05:47:36.223Z,4.18
2023-03-28T05:50:04.389Z,4.80
2023-03-28T05:52:31.510Z,4.00
2023-03-28T05:54:58.586Z,4.68
2023-03-28T05:57:25.663Z,4.13
2023-03-28T05:59:53.805Z,4.85
2023-03-28T06:02:23.572Z,4.53
2023-03-28T06:04:52.758Z,4.88
2023-03-28T06:07:25.503Z,4.03
2023-03-28T06:09:58.913Z,4.55
2023-03-28T06:12:25.960Z,4.93
2023-03-28T06:14:53.254Z,4.72
2023-03-28T06:17:20.874Z,5.38
2023-03-28T06:19:48.039Z,5.07
2023-03-28T06:22:15.282Z,4.68
2023-03-28T06:24:42.389Z,4.75
2023-03-28T06:27:10.096Z,4.70
2023-03-28T06:29:37.146Z,4.60
2023-03-28T06:32:04.463Z,5.07
2023-03-28T06:34:31.822Z,5.10
2023-03-28T06:37:00.294Z,5.28
2023-03-28T06:39:27.535Z,5.25
2023-03-28T06:41:54.627Z,4.50
2023-03-28T06:44:21.634Z,5.45
2023-03-28T06:46:48.784Z,4.38
2023-03-28T06:49:15.861Z,4.97
2023-03-28T06:51:42.871Z,5.40
2023-03-28T06:54:10.374Z,4.63
2023-03-28T06:56:37.906Z,5.38
2023-03-28T06:59:05.370Z,4.38
2023-03-28T07:01:32.829Z,5.60
2023-03-28T07:04:00.236Z,5.18
2023-03-28T07:06:27.880Z,4.80
2023-03-28T07:08:57.291Z,4.68
2023-03-28T07:11:24.445Z,5.28
2023-03-28T07:13:51.526Z,4.90
2023-03-28T07:16:18.988Z,4.50
2023-03-28T07:18:46.562Z,5.63
2023-03-28T07:21:16.528Z,5.97
2023-03-28T07:23:44.861Z,4.70
2023-03-28T07:26:13.245Z,5.25
2023-03-28T07:28:40.845Z,5.88
2023-03-28T07:31:09.033Z,5.78
2023-03-28T07:33:38.166Z,6.45
2023-03-28T07:36:15.097Z,7.38
2023-03-28T07:38:42.237Z,6.28
2023-03-28T07:41:11.517Z,6.22
2023-03-28T07:43:40.220Z,5.47
2023-03-28T07:46:10.096Z,7.55
2023-03-28T07:48:38.199Z,4.50
2023-03-28T07:51:06.440Z,6.75
2023-03-28T07:53:34.897Z,4.20
2023-03-28T07:56:02.009Z,4.25
2023-03-28T07:58:29.109Z,3.70
2023-03-28T08:00:56.372Z,4.30
2023-03-28T08:03:23.992Z,3.63
2023-03-28T08:05:52.027Z,4.35
2023-03-28T08:08:20.258Z,3.25
2023-03-28T08:10:51.539Z,3.78
2023-03-28T08:13:21.430Z,3.80
2023-03-28T08:15:55.030Z,4.28
2023-03-28T08:18:25.104Z,3.00
2023-03-28T08:20:58.907Z,3.55
2023-03-28T08:23:26.732Z,15.05
2023-03-28T08:26:06.083Z,7.53
2023-03-28T08:28:34.814Z,13.68
2023-03-28T08:31:02.884Z,4.97
2023-03-28T08:33:32.728Z,12.98
2023-03-28T08:36:00.003Z,2.35
2023-03-28T08:38:27.062Z,2.55
2023-03-28T08:41:07.153Z,5.45
2023-03-28T08:44:07.146Z,2.30
2023-03-28T08:46:36.173Z,7.75
2023-03-28T08:49:07.928Z,8.77
2023-03-28T08:51:44.318Z,6.93
2023-03-28T08:54:26.631Z,6.85
2023-03-28T08:56:57.150Z,11.05
2023-03-28T08:59:43.280Z,2.22
2023-03-28T09:02:31.375Z,3.88
2023-03-28T09:05:11.837Z,2.72
2023-03-28T09:07:59.607Z,1.98
2023-03-28T09:10:41.037Z,2.70
2023-03-28T09:13:13.675Z,12.75
2023-03-28T09:15:50.050Z,2.28
2023-03-28T09:19:05.323Z,6.40
2023-03-28T09:22:08.880Z,1.73
2023-03-28T09:25:08.759Z,4.80
2023-03-28T09:28:02.773Z,3.25
2023-03-28T09:30:34.128Z,2.05
2023-03-28T09:33:09.041Z,4.72
2023-03-28T09:35:36.990Z,3.22
2023-03-28T09:38:11.997Z,1.90
2023-03-28T09:40:46.949Z,2.05
2023-03-28T09:43:41.992Z,2.63
2023-03-28T09:46:14.946Z,2.75
2023-03-28T09:48:42.115Z,2.33
2023-03-28T09:51:16.091Z,2.72
2023-03-28T09:53:43.366Z,2.28
2023-03-28T09:56:17.765Z,2.53
2023-03-28T09:58:50.964Z,2.30
2023-03-28T10:01:36.300Z,2.75
2023-03-28T10:04:11.060Z,3.13
2023-03-28T10:06:40.282Z,3.40
2023-03-28T10:09:13.480Z,2.75
2023-03-28T10:11:55.428Z,2.60
2023-03-28T10:14:34.024Z,2.50
2023-03-28T10:17:07.577Z,2.30
2023-03-28T10:19:38.584Z,2.78
2023-03-28T10:22:10.901Z,2.45
2023-03-28T10:24:40.023Z,2.40
2023-03-28T10:27:25.674Z,1.83
2023-03-28T10:29:55.752Z,2.55
2023-03-28T10:32:30.890Z,2.00
2023-03-28T10:35:26.149Z,2.00
2023-03-28T10:38:03.471Z,1.58
2023-03-28T10:40:32.466Z,1.67
2023-03-28T10:42:59.882Z,2.15
2023-03-28T10:45:56.055Z,2.00
2023-03-28T10:48:29.342Z,1.55
2023-03-28T10:51:00.664Z,1.33
2023-03-28T10:53:52.843Z,3.00
2023-03-28T10:56:23.078Z,1.63
2023-03-28T10:59:29.625Z,1.88
2023-03-28T11:02:13.743Z,1.40
2023-03-28T11:04:54.111Z,1.00
2023-03-28T11:07:36.728Z,1.20
2023-03-28T11:10:32.579Z,1.33
2023-03-28T11:13:12.179Z,1.40
2023-03-28T11:15:58.430Z,1.20
2023-03-28T11:18:57.002Z,0.88
2023-03-28T11:21:52.859Z,1.27
2023-03-28T11:24:22.714Z,1.40
2023-03-28T11:27:16.335Z,1.20
2023-03-28T11:29:52.824Z,1.10
2023-03-28T11:32:40.699Z,1.02
2023-03-28T11:35:22.127Z,1.30
2023-03-28T11:38:01.125Z,1.55
2023-03-28T11:40:36.481Z,1.63
2023-03-28T11:43:06.437Z,1.50
2023-03-28T11:45:53.179Z,1.52
2023-03-28T11:48:36.125Z,1.38
2023-03-28T11:51:34.144Z,1.95
2023-03-28T11:54:21.231Z,1.73
2023-03-28T11:56:56.674Z,2.10
2023-03-28T11:59:31.126Z,1.83
2023-03-28T12:02:09.037Z,1.80
2023-03-28T12:04:45.873Z,1.40
2023-03-28T12:07:24.524Z,1.83
2023-03-28T12:10:17.345Z,1.70
2023-03-28T12:12:57.079Z,1.83
2023-03-28T12:15:52.325Z,2.05
2023-03-28T12:19:01.480Z,1.50
2023-03-28T12:21:35.246Z,1.40
2023-03-28T12:26:38.322Z,1.60
2023-03-28T12:29:17.489Z,1.60
2023-03-28T12:31:53.932Z,1.20
2023-03-28T12:34:34.074Z,1.80
2023-03-28T12:37:12.086Z,1.58
2023-03-28T12:39:55.184Z,1.08
2023-03-28T12:42:24.763Z,1.40
2023-03-28T12:45:00.927Z,1.73
2023-03-28T12:47:38.963Z,1.52
2023-03-28T12:50:17.018Z,1.90
2023-03-28T12:52:46.730Z,1.35
2023-03-28T12:55:31.373Z,1.83
2023-03-28T12:58:20.252Z,1.50
2023-03-28T13:00:59.471Z,1.35
2023-03-28T13:03:35.275Z,1.50
2023-03-28T13:06:32.793Z,1.75
2023-03-28T13:09:23.311Z,4.97
2023-03-28T13:12:01.970Z,5.40
2023-03-28T13:14:42.460Z,1.42
2023-03-28T13:17:23.345Z,4.68
2023-03-28T13:19:53.527Z,4.53
2023-03-28T13:22:30.459Z,1.58
2023-03-28T13:25:22.843Z,1.88
2023-03-28T13:27:58.445Z,1.85
2023-03-28T13:30:28.795Z,1.42
2023-03-28T13:32:59.124Z,1.85
2023-03-28T13:35:48.971Z,1.75
2023-03-28T13:38:47.011Z,1.95
2023-03-28T13:41:35.938Z,2.28
2023-03-28T13:44:14.690Z,1.88
2023-03-28T13:46:43.451Z,2.00
2023-03-28T13:49:10.744Z,2.10
2023-03-28T13:52:04.869Z,1.70
2023-03-28T13:54:32.229Z,1.63
2023-03-28T13:57:08.361Z,2.10
2023-03-28T13:59:43.807Z,1.85
2023-03-28T14:02:18.424Z,2.15
2023-03-28T14:05:03.457Z,2.53
2023-03-28T14:07:30.740Z,2.10
2023-03-28T14:09:58.192Z,2.25
2023-03-28T14:12:29.440Z,2.13
2023-03-28T14:14:58.947Z,2.80
2023-03-28T14:17:33.323Z,2.00
2023-03-28T14:20:05.349Z,1.88
2023-03-28T14:22:45.720Z,2.20
2023-03-28T14:25:22.195Z,2.30
2023-03-28T14:27:51.998Z,3.25
2023-03-28T14:30:29.839Z,5.85
2023-03-28T14:33:07.297Z,3.25
2023-03-28T14:35:36.461Z,2.15
2023-03-28T14:38:07.209Z,2.17
2023-03-28T14:40:36.481Z,2.70
2023-03-28T14:43:20.243Z,2.28
2023-03-28T14:45:52.651Z,1.55
2023-03-28T14:48:26.615Z,2.47
2023-03-28T14:50:54.698Z,2.05
2023-03-28T14:53:27.631Z,2.17
2023-03-28T14:56:01.166Z,2.22
2023-03-28T14:58:30.598Z,2.33
2023-03-28T15:01:01.636Z,2.50
2023-03-28T15:03:42.474Z,1.92
2023-03-28T15:06:18.614Z,1.90
2023-03-28T15:08:46.600Z,2.35
2023-03-28T15:11:19.511Z,2.17
2023-03-28T15:13:50.379Z,2.25
2023-03-28T15:16:23.241Z,2.05
2023-03-28T15:19:18.071Z,2.70
2023-03-28T15:21:53.379Z,1.97
2023-03-28T15:24:21.130Z,1.98
2023-03-28T15:26:53.888Z,2.50
2023-03-28T15:29:25.090Z,2.58
2023-03-28T15:31:54.959Z,2.85
2023-03-28T15:34:27.224Z,2.42
2023-03-28T15:37:00.728Z,2.53
2023-03-28T15:39:31.936Z,2.38
2023-03-28T15:42:21.315Z,2.85
2023-03-28T15:44:57.405Z,1.90
2023-03-28T15:47:33.614Z,2.15
2023-03-28T15:50:04.914Z,2.63
2023-03-28T15:52:34.154Z,1.80
2023-03-28T15:55:03.109Z,2.50
2023-03-28T15:57:31.148Z,3.00
2023-03-28T15:59:58.713Z,4.80
2023-03-28T16:02:26.448Z,3.45
2023-03-28T16:05:00.918Z,6.15
2023-03-28T16:07:34.841Z,4.43
2023-03-28T16:10:02.715Z,3.42
2023-03-28T16:12:29.772Z,2.90
2023-03-28T16:14:56.849Z,4.40
2023-03-28T16:17:26.401Z,5.50
2023-03-28T16:19:53.577Z,4.28
2023-03-28T16:22:21.467Z,3.55
2023-03-28T16:24:50.380Z,3.70
2023-03-28T16:27:18.436Z,3.58
2023-03-28T16:29:45.784Z,3.38
2023-03-28T16:32:15.087Z,1.50
2023-03-28T16:34:43.193Z,3.10
2023-03-28T16:37:11.480Z,2.45
2023-03-28T16:39:39.031Z,2.97
2023-03-28T16:42:06.578Z,2.80
2023-03-28T16:44:33.856Z,2.42
2023-03-28T16:47:02.413Z,3.28
2023-03-28T16:49:29.769Z,2.80
2023-03-28T16:51:56.947Z,2.50
2023-03-28T16:54:24.324Z,2.70
2023-03-28T16:56:51.848Z,3.50
2023-03-28T16:59:20.121Z,2.80
2023-03-28T17:01:47.568Z,5.60
2023-03-28T17:04:14.806Z,5.05
2023-03-28T17:06:41.840Z,3.88
2023-03-28T17:09:09.197Z,5.57
2023-03-28T17:11:36.385Z,4.93
2023-03-28T17:14:03.770Z,4.47
2023-03-28T17:16:31.452Z,5.57
2023-03-28T17:18:58.588Z,5.60
2023-03-28T17:21:25.824Z,4.50
2023-03-28T17:23:52.893Z,4.47
2023-03-28T17:26:20.924Z,4.20
2023-03-28T17:28:47.999Z,4.43
2023-03-28T17:31:17.645Z,4.20
2023-03-28T17:33:46.386Z,3.85
2023-03-28T17:36:17.261Z,4.65
2023-03-28T17:38:46.531Z,4.05
2023-03-28T17:41:13.659Z,3.92
2023-03-28T17:43:41.450Z,3.67
2023-03-28T17:46:10.234Z,3.58
2023-03-28T17:48:41.229Z,3.60
2023-03-28T17:51:10.541Z,3.63
2023-03-28T17:53:42.718Z,3.22
2023-03-28T17:56:11.387Z,3.85
2023-03-28T17:58:39.803Z,3.90
2023-03-28T18:01:12.081Z,5.32
2023-03-28T18:03:39.508Z,5.45
2023-03-28T18:06:08.945Z,5.63
2023-03-28T18:08:36.584Z,5.22
2023-03-28T18:11:07.486Z,4.97
2023-03-28T18:13:38.416Z,4.00
2023-03-28T18:16:10.469Z,3.80
2023-03-28T18:18:39.272Z,5.05
2023-03-28T18:21:08.516Z,4.40
2023-03-28T18:23:36.632Z,4.00
2023-03-28T18:26:04.039Z,4.80
2023-03-28T18:28:31.302Z,4.65
2023-03-28T18:31:08.406Z,5.03
2023-03-28T18:33:35.721Z,4.88
2023-03-28T18:36:03.136Z,6.47
2023-03-28T18:38:38.422Z,5.55
2023-03-28T18:41:08.504Z,5.93
2023-03-28T18:43:37.551Z,5.53
2023-03-28T18:46:08.007Z,5.88
2023-03-28T18:48:36.202Z,4.05
2023-03-28T18:51:03.324Z,5.30
2023-03-28T18:53:30.498Z,4.40
2023-03-28T18:55:57.762Z,4.15
2023-03-28T18:58:26.222Z,3.80
2023-03-28T19:00:59.189Z,3.90
2023-03-28T19:03:28.100Z,3.72
2023-03-28T19:06:00.692Z,4.05
2023-03-28T19:08:30.914Z,3.92
2023-03-28T19:11:07.660Z,3.33
2023-03-28T19:13:34.784Z,3.38
2023-03-28T19:16:09.166Z,3.35
2023-03-28T19:18:43.443Z,14.30
2023-03-28T19:21:11.692Z,21.45
2023-03-28T19:23:40.036Z,7.32
2023-03-28T19:26:09.048Z,3.30
2023-03-28T19:28:36.344Z,2.97
2023-03-28T19:31:06.402Z,2.88
2023-03-28T19:33:33.657Z,2.67
2023-03-28T19:36:01.163Z,2.80
2023-03-28T19:38:30.765Z,3.03
2023-03-28T19:40:59.145Z,2.90
2023-03-28T19:43:27.362Z,2.58
2023-03-28T19:45:54.929Z,3.38
2023-03-28T19:48:22.293Z,3.28
2023-03-28T19:50:50.498Z,3.00
2023-03-28T19:53:17.573Z,3.47
2023-03-28T19:55:51.950Z,3.35
2023-03-28T19:58:19.062Z,3.15
2023-03-28T20:00:46.227Z,3.30
2023-03-28T20:03:13.394Z,3.63
2023-03-28T20:05:42.301Z,3.88
2023-03-28T20:08:09.387Z,3.10
2023-03-28T20:10:43.989Z,4.03
2023-03-28T20:13:11.084Z,4.07
2023-03-28T20:15:41.322Z,3.63
2023-03-28T20:18:19.499Z,4.45
2023-03-28T20:20:57.521Z,3.78
2023-03-28T20:23:26.058Z,3.85
2023-03-28T20:25:54.286Z,4.32
2023-03-28T20:28:26.471Z,3.85
2023-03-28T20:30:53.867Z,3.88
2023-03-28T20:33:21.735Z,4.45
2023-03-28T20:35:57.097Z,3.22
2023-03-28T20:38:25.477Z,3.42
2023-03-28T20:40:52.525Z,3.72
2023-03-28T20:43:26.703Z,3.72
2023-03-28T20:45:56.098Z,3.90
2023-03-28T20:48:34.807Z,3.35
2023-03-28T20:51:15.022Z,3.70
2023-03-28T20:53:47.680Z,2.90
2023-03-28T20:56:16.032Z,3.97
2023-03-28T20:58:44.059Z,3.30
2023-03-28T21:01:12.927Z,3.25
2023-03-28T21:03:50.277Z,2.97
2023-03-28T21:06:40.098Z,3.08
2023-03-28T21:09:14.339Z,3.08
2023-03-28T21:11:42.192Z,2.45
2023-03-28T21:14:13.473Z,2.38
2023-03-28T21:16:43.750Z,3.00
2023-03-28T21:19:10.879Z,3.25
2023-03-28T21:21:38.368Z,2.60
2023-03-28T21:24:07.434Z,2.08
2023-03-28T21:26:35.904Z,2.33
2023-03-28T21:29:03.674Z,3.03
2023-03-28T21:31:31.988Z,2.08
2023-03-28T21:33:59.773Z,2.35
2023-03-28T21:36:27.734Z,2.25
2023-03-28T21:38:56.065Z,2.33
2023-03-28T21:41:23.212Z,2.45
2023-03-28T21:43:51.860Z,2.30
2023-03-28T21:46:19.473Z,2.47
2023-03-28T21:48:48.284Z,1.90
2023-03-28T21:51:16.924Z,2.17
2023-03-28T21:53:44.711Z,1.95
2023-03-28T21:56:14.205Z,1.80
2023-03-28T21:58:41.693Z,2.00
2023-03-28T22:01:12.537Z,1.92
2023-03-28T22:03:40.380Z,2.05
2023-03-28T22:06:08.322Z,1.92
2023-03-28T22:08:35.512Z,2.17
2023-03-28T22:11:13.531Z,2.17
2023-03-28T22:13:41.887Z,1.98
2023-03-28T22:16:10.105Z,1.92
2023-03-28T22:18:37.397Z,2.33
2023-03-28T22:21:04.887Z,2.00
2023-03-28T22:23:32.025Z,1.73
2023-03-28T22:25:59.049Z,2.42
2023-03-28T22:28:26.176Z,1.85
2023-03-28T22:30:55.095Z,2.05
2023-03-28T22:33:23.586Z,2.13
2023-03-28T22:35:51.823Z,1.70
2023-03-28T22:38:19.527Z,1.35
2023-03-28T22:40:47.607Z,2.33
2023-03-28T22:43:16.006Z,2.08
2023-03-28T22:45:43.363Z,2.20
2023-03-28T22:48:17.028Z,2.42
2023-03-28T22:53:12.806Z,2.03
2023-03-28T22:55:41.710Z,1.85
2023-03-28T22:58:09.164Z,2.22
2023-03-28T23:00:36.325Z,1.92
2023-03-28T23:03:04.057Z,2.10
2023-03-28T23:05:31.882Z,2.05
2023-03-28T23:07:59.924Z,1.38
2023-03-28T23:10:27.371Z,1.80
2023-03-28T23:12:54.423Z,1.70
2023-03-28T23:15:21.557Z,1.65
2023-03-28T23:17:48.984Z,1.88
2023-03-28T23:20:17.066Z,1.52
2023-03-28T23:22:46.322Z,1.60
2023-03-28T23:25:15.026Z,1.60
2023-03-28T23:27:42.933Z,1.88
2023-03-28T23:30:13.051Z,1.80
2023-03-28T23:32:40.803Z,1.65
2023-03-28T23:35:10.366Z,1.55
2023-03-28T23:37:38.302Z,1.98
2023-03-28T23:40:10.362Z,2.25
2023-03-28T23:42:37.757Z,2.05
2023-03-28T23:45:05.228Z,2.03
2023-03-28T23:47:32.354Z,1.70
2023-03-28T23:49:59.678Z,1.80
2023-03-28T23:52:27.111Z,1.52
2023-03-28T23:54:54.176Z,2.35
2023-03-28T23:57:24.912Z,1.77
2023-03-28T23:59:52.154Z,1.55
